createdAt,value
2023-02-26T00:04:17.256Z,23.3
2023-02-26T00:10:12.258Z,23.3
2023-02-26T00:15:50.676Z,23.3
2023-02-26T00:21:44.287Z,23.3
2023-02-26T00:27:37.376Z,23.3
2023-02-26T00:33:31.065Z,23.3
2023-02-26T00:39:24.198Z,23.2
2023-02-26T00:45:17.422Z,23.2
2023-02-26T00:51:10.352Z,23.2
2023-02-26T00:57:02.310Z,23.2
2023-02-26T01:02:55.249Z,23.1
2023-02-26T01:08:47.908Z,23.1
2023-02-26T01:14:39.922Z,23.1
2023-02-26T01:20:34.601Z,23.1
2023-02-26T01:26:27.421Z,23.1
2023-02-26T01:32:21.336Z,23.1
2023-02-26T01:38:14.683Z,23.1
2023-02-26T01:44:07.934Z,23
2023-02-26T01:50:01.061Z,23
2023-02-26T01:55:54.973Z,23
2023-02-26T02:01:47.537Z,23.1
2023-02-26T02:07:40.318Z,24.9
2023-02-26T02:13:33.357Z,28.2
2023-02-26T02:19:10.737Z,31.2
2023-02-26T02:24:47.727Z,33.4
2023-02-26T02:30:42.005Z,35.1
2023-02-26T02:36:36.077Z,36.3
2023-02-26T02:42:29.638Z,37.2
2023-02-26T02:48:24.752Z,38.1
2023-02-26T02:54:17.386Z,38.8
2023-02-26T03:00:09.883Z,39.4
2023-02-26T03:06:04.422Z,40.2
2023-02-26T03:11:57.599Z,41
2023-02-26T03:17:51.198Z,41.8
2023-02-26T03:23:44.845Z,42.6
2023-02-26T03:29:37.441Z,43.4
2023-02-26T03:35:30.847Z,43.8
2023-02-26T03:41:23.324Z,43.9
2023-02-26T03:47:00.401Z,44.1
2023-02-26T03:52:53.940Z,44.1
2023-02-26T03:58:31.353Z,44.1
2023-02-26T04:04:09.268Z,44.2
2023-02-26T04:09:49.141Z,44.1
2023-02-26T04:15:42.849Z,44.2
2023-02-26T04:21:19.849Z,44.1
2023-02-26T04:27:13.198Z,44.1
2023-02-26T04:33:06.673Z,44.1
2023-02-26T04:38:58.849Z,44.1
2023-02-26T04:44:35.996Z,44
2023-02-26T04:50:30.538Z,44.1
2023-02-26T04:56:08.985Z,44.1
2023-02-26T05:01:45.549Z,44.1
2023-02-26T05:07:07.932Z,44
2023-02-26T05:13:01.161Z,44
2023-02-26T05:18:54.656Z,43.9
2023-02-26T05:24:50.357Z,43.9
2023-02-26T05:30:43.045Z,43.8
2023-02-26T05:36:36.517Z,43.7
2023-02-26T05:42:30.010Z,43.6
2023-02-26T05:48:23.014Z,43.6
2023-02-26T05:54:00.571Z,43.3
2023-02-26T05:59:53.258Z,43
2023-02-26T06:05:45.745Z,42.8
2023-02-26T06:11:37.641Z,42.6
2023-02-26T06:17:30.609Z,42.5
2023-02-26T06:23:23.204Z,42.4
2023-02-26T06:29:15.995Z,42.3
2023-02-26T06:34:54.577Z,42.2
2023-02-26T06:40:32.971Z,42.1
2023-02-26T06:46:25.439Z,41.9
2023-02-26T06:52:18.171Z,41.5
2023-02-26T06:58:10.353Z,41.3
2023-02-26T07:04:03.515Z,41.1
2023-02-26T07:10:18.856Z,40.9
2023-02-26T07:16:10.872Z,40.8
2023-02-26T07:22:04.319Z,40.6
2023-02-26T07:28:00.354Z,40.4
2023-02-26T07:33:54.633Z,40
2023-02-26T07:39:46.416Z,39.4
2023-02-26T07:45:39.139Z,39.2
2023-02-26T07:51:16.711Z,39
2023-02-26T07:57:08.833Z,38.9
2023-02-26T08:03:02.007Z,38.6
2023-02-26T08:08:54.460Z,38.4
2023-02-26T08:14:47.300Z,38.4
2023-02-26T08:20:40.674Z,38.2
2023-02-26T08:26:03.902Z,37.7
2023-02-26T08:31:56.846Z,37.4
2023-02-26T08:37:50.770Z,37.1
2023-02-26T08:43:14.690Z,36.7
2023-02-26T08:49:18.951Z,47.8
2023-02-26T08:55:11.712Z,44.3
2023-02-26T09:01:03.462Z,42.3
2023-02-26T09:07:00.108Z,41
2023-02-26T09:12:53.809Z,40.3
2023-02-26T09:18:30.746Z,48.7
2023-02-26T09:24:24.306Z,45.4
2023-02-26T09:30:17.509Z,48.4
2023-02-26T09:35:55.026Z,51.6
2023-02-26T09:41:49.967Z,53.2
2023-02-26T09:47:42.629Z,54.3
2023-02-26T09:53:19.026Z,55.1
2023-02-26T09:59:11.029Z,55.6
2023-02-26T10:05:04.317Z,56.1
2023-02-26T10:10:57.237Z,56.8
2023-02-26T10:16:32.552Z,57.4
2023-02-26T10:22:11.250Z,57.9
2023-02-26T10:28:03.857Z,58.3
2023-02-26T10:39:22.867Z,58.9
2023-02-26T10:45:15.442Z,59.2
2023-02-26T10:50:22.015Z,59.5
2023-02-26T10:56:15.166Z,59.1
2023-02-26T11:01:37.502Z,58.6
2023-02-26T11:07:20.374Z,57.8
2023-02-26T11:13:13.422Z,57.3
2023-02-26T11:19:07.648Z,56.6
2023-02-26T11:24:59.700Z,55.9
2023-02-26T11:30:56.297Z,55.3
2023-02-26T11:36:51.937Z,54.6
2023-02-26T11:48:09.869Z,49.2
2023-02-26T11:53:31.469Z,47.3
2023-02-26T11:59:10.633Z,46.2
2023-02-26T12:05:04.064Z,45.3
2023-02-26T12:10:56.485Z,44.6
2023-02-26T12:16:50.085Z,43.9
2023-02-26T12:22:30.549Z,43.4
2023-02-26T12:28:08.040Z,42.9
2023-02-26T12:34:01.335Z,42.4
2023-02-26T12:40:11.550Z,42.1
2023-02-26T12:45:48.853Z,41.7
2023-02-26T12:51:42.297Z,41.4
2023-02-26T12:57:35.365Z,41.1
2023-02-26T13:03:39.418Z,40.8
2023-02-26T13:09:30.869Z,40.5
2023-02-26T13:15:24.538Z,39.8
2023-02-26T13:21:16.979Z,39.4
2023-02-26T13:27:08.691Z,39.1
2023-02-26T13:33:06.714Z,38.8
2023-02-26T13:38:59.631Z,38.5
2023-02-26T13:44:52.596Z,38.3
2023-02-26T13:49:59.017Z,38.1
2023-02-26T13:55:20.611Z,37.9
2023-02-26T14:00:59.341Z,37.7
2023-02-26T14:06:36.712Z,37.6
2023-02-26T14:12:15.963Z,37.4
2023-02-26T14:17:52.906Z,36.4
2023-02-26T14:23:45.864Z,46.4
2023-02-26T14:29:38.610Z,43.1
2023-02-26T14:35:32.757Z,40.9
2023-02-26T14:41:29.378Z,39.6
2023-02-26T14:47:22.139Z,38.8
2023-02-26T14:53:14.718Z,38.2
2023-02-26T14:58:52.830Z,37.5
2023-02-26T15:05:00.835Z,36.9
2023-02-26T15:10:52.962Z,36.4
2023-02-26T15:16:48.503Z,35.9
2023-02-26T15:22:42.071Z,35.5
2023-02-26T15:28:35.394Z,34.9
2023-02-26T15:34:29.863Z,34.4
2023-02-26T15:40:23.761Z,33.9
2023-02-26T15:46:24.668Z,33.6
2023-02-26T15:52:17.894Z,33.3
2023-02-26T15:58:10.868Z,33.1
2023-02-26T16:03:48.715Z,32.9
2023-02-26T16:09:41.482Z,32.6
2023-02-26T16:15:34.234Z,32.4
2023-02-26T16:21:27.666Z,32.1
2023-02-26T16:27:21.607Z,32.1
2023-02-26T16:33:15.444Z,31.9
2023-02-26T16:38:54.089Z,31.7
2023-02-26T16:44:31.758Z,31.6
2023-02-26T16:50:10.728Z,31.5
2023-02-26T16:55:33.651Z,31.4
2023-02-26T17:00:58.594Z,31.4
2023-02-26T17:06:36.703Z,31.3
2023-02-26T17:12:33.600Z,31.1
2023-02-26T17:18:28.481Z,31
2023-02-26T17:24:21.903Z,30.9
2023-02-26T17:30:14.999Z,30.8
2023-02-26T17:36:09.362Z,30.6
2023-02-26T17:42:02.395Z,30.6
2023-02-26T17:47:55.822Z,30.5
2023-02-26T17:53:49.305Z,30.3
2023-02-26T17:59:43.036Z,30.3
2023-02-26T18:05:37.623Z,30
2023-02-26T18:11:31.383Z,28.3
2023-02-26T18:17:24.626Z,27.3
2023-02-26T18:23:17.726Z,26.8
2023-02-26T18:29:11.156Z,26.5
2023-02-26T18:35:05.620Z,26.2
2023-02-26T18:40:57.933Z,25.9
2023-02-26T18:46:51.741Z,25.6
2023-02-26T18:52:44.628Z,25.4
2023-02-26T18:58:39.348Z,25.3
2023-02-26T19:04:35.187Z,25.1
2023-02-26T19:10:28.647Z,25
2023-02-26T19:16:21.773Z,24.9
2023-02-26T19:22:15.630Z,24.9
2023-02-26T19:28:12.175Z,24.8
2023-02-26T19:34:09.843Z,24.8
2023-02-26T19:40:04.374Z,24.9
2023-02-26T19:45:57.370Z,24.8
2023-02-26T19:51:50.607Z,24.9
2023-02-26T19:57:43.189Z,24.9
2023-02-26T20:03:37.307Z,24.8
2023-02-26T20:09:30.281Z,24.8
2023-02-26T20:15:25.849Z,25.9
2023-02-26T20:21:19.893Z,29.3
2023-02-26T20:26:57.304Z,32.8
2023-02-26T20:32:54.039Z,35.6
2023-02-26T20:38:49.662Z,37.9
2023-02-26T20:44:42.849Z,39.6
2023-02-26T20:50:36.582Z,40.9
2023-02-26T20:56:30.262Z,41.8
2023-02-26T21:02:08.569Z,42.6
2023-02-26T21:07:46.647Z,43.3
2023-02-26T21:13:39.105Z,43.9
2023-02-26T21:19:32.625Z,44.1
2023-02-26T21:25:26.017Z,44.1
2023-02-26T21:31:20.485Z,44
2023-02-26T21:37:39.820Z,44
2023-02-26T21:43:33.726Z,44
2023-02-26T21:49:27.423Z,43.9
2023-02-26T21:55:21.059Z,43.8
2023-02-26T22:01:14.221Z,43.8
2023-02-26T22:07:07.050Z,43.7
2023-02-26T22:12:59.823Z,43.6
2023-02-26T22:18:52.345Z,43.5
2023-02-26T22:24:44.728Z,43.4
2023-02-26T22:30:36.177Z,43.3
2023-02-26T22:36:30.071Z,43.2
2023-02-26T22:42:22.769Z,43.1
2023-02-26T22:48:15.863Z,43
2023-02-26T22:54:08.120Z,42.9
2023-02-26T23:00:00.257Z,42.8
2023-02-26T23:05:54.239Z,42.7
2023-02-26T23:11:46.757Z,42.6
2023-02-26T23:17:39.711Z,42.4
2023-02-26T23:23:31.443Z,42.4
2023-02-26T23:29:24.132Z,42.3
2023-02-26T23:35:17.012Z,42.2
2023-02-26T23:41:09.104Z,42.1
2023-02-26T23:47:02.205Z,41.9
2023-02-26T23:52:54.200Z,41.9
2023-02-26T23:58:46.177Z,41.8
